sensor_id;sensor_type;location;lat;lon;timestamp;P1;P2;P0
77354;PMS7003;66422;51.202;19.936;2023-08-31T00:13:37;7.00;6.00;4.00
77354;PMS7003;66422;51.202;19.936;2023-08-31T00:28:57;8.00;7.00;5.00
77354;PMS7003;66422;51.202;19.936;2023-08-31T00:44:18;6.00;6.00;4.00
77354;PMS7003;66422;51.202;19.936;2023-08-31T00:59:37;9.33;7.33;5.33
77354;PMS7003;66422;51.202;19.936;2023-08-31T01:14:59;6.00;6.00;4.00
77354;PMS7003;66422;51.202;19.936;2023-08-31T01:30:24;9.00;7.50;6.00
77354;PMS7003;66422;51.202;19.936;2023-08-31T01:45:44;8.75;8.00;6.00
77354;PMS7003;66422;51.202;19.936;2023-08-31T02:01:05;6.33;6.33;5.00
77354;PMS7003;66422;51.202;19.936;2023-08-31T02:16:25;9.00;9.00;6.00
77354;PMS7003;66422;51.202;19.936;2023-08-31T02:31:44;9.50;8.50;6.00
77354;PMS7003;66422;51.202;19.936;2023-08-31T02:47:05;11.00;9.00;6.67
77354;PMS7003;66422;51.202;19.936;2023-08-31T03:02:25;10.00;8.00;7.00
77354;PMS7003;66422;51.202;19.936;2023-08-31T03:17:45;10.00;9.00;7.00
77354;PMS7003;66422;51.202;19.936;2023-08-31T03:33:04;8.67;8.67;6.00
77354;PMS7003;66422;51.202;19.936;2023-08-31T03:48:25;12.33;11.67;8.33
77354;PMS7003;66422;51.202;19.936;2023-08-31T04:03:46;15.50;10.50;8.00
77354;PMS7003;66422;51.202;19.936;2023-08-31T04:19:06;16.50;11.50;9.00
77354;PMS7003;66422;51.202;19.936;2023-08-31T04:34:26;13.00;12.00;8.00
77354;PMS7003;66422;51.202;19.936;2023-08-31T04:49:46;11.50;10.50;8.50
77354;PMS7003;66422;51.202;19.936;2023-08-31T05:05:06;12.00;11.00;8.00
77354;PMS7003;66422;51.202;19.936;2023-08-31T05:20:26;11.00;11.00;8.00
77354;PMS7003;66422;51.202;19.936;2023-08-31T05:35:46;17.50;9.00;7.00
77354;PMS7003;66422;51.202;19.936;2023-08-31T05:51:06;10.50;10.50;7.50
77354;PMS7003;66422;51.202;19.936;2023-08-31T06:06:25;10.00;9.67;8.00
77354;PMS7003;66422;51.202;19.936;2023-08-31T06:21:45;7.00;7.00;5.00
77354;PMS7003;66422;51.202;19.936;2023-08-31T06:37:05;10.00;10.00;9.00
77354;PMS7003;66422;51.202;19.936;2023-08-31T06:52:25;9.00;9.00;6.00
77354;PMS7003;66422;51.202;19.936;2023-08-31T07:07:45;11.67;8.00;7.00
77354;PMS7003;66422;51.202;19.936;2023-08-31T07:23:06;8.00;7.00;5.00
77354;PMS7003;66422;51.202;19.936;2023-08-31T07:38:26;4.00;4.00;4.00
77354;PMS7003;66422;51.202;19.936;2023-08-31T07:53:46;5.00;5.00;4.00
77354;PMS7003;66422;51.202;19.936;2023-08-31T08:09:06;6.00;6.00;5.00
77354;PMS7003;66422;51.202;19.936;2023-08-31T08:24:26;5.67;5.67;4.00
77354;PMS7003;66422;51.202;19.936;2023-08-31T08:39:49;7.00;5.00;5.00
77354;PMS7003;66422;51.202;19.936;2023-08-31T08:55:09;5.67;5.67;4.00
77354;PMS7003;66422;51.202;19.936;2023-08-31T09:10:33;6.00;3.00;2.00
77354;PMS7003;66422;51.202;19.936;2023-08-31T09:25:59;3.00;2.67;1.67
77354;PMS7003;66422;51.202;19.936;2023-08-31T09:41:19;4.33;4.33;4.00
77354;PMS7003;66422;51.202;19.936;2023-08-31T09:56:39;5.67;5.67;5.33
77354;PMS7003;66422;51.202;19.936;2023-08-31T10:12:02;6.50;6.50;5.50
77354;PMS7003;66422;51.202;19.936;2023-08-31T10:27:23;7.50;7.50;6.00
77354;PMS7003;66422;51.202;19.936;2023-08-31T10:42:44;8.00;8.00;6.50
77354;PMS7003;66422;51.202;19.936;2023-08-31T10:58:09;6.33;6.33;4.67
77354;PMS7003;66422;51.202;19.936;2023-08-31T11:13:29;9.00;8.50;6.50
77354;PMS7003;66422;51.202;19.936;2023-08-31T11:28:49;10.00;10.00;8.00
77354;PMS7003;66422;51.202;19.936;2023-08-31T11:44:09;6.00;6.00;5.00
77354;PMS7003;66422;51.202;19.936;2023-08-31T11:59:36;7.33;7.33;6.67
77354;PMS7003;66422;51.202;19.936;2023-08-31T12:14:56;4.00;3.25;3.25
77354;PMS7003;66422;51.202;19.936;2023-08-31T12:30:17;8.33;7.33;6.33
77354;PMS7003;66422;51.202;19.936;2023-08-31T12:45:36;7.33;7.33;6.33
77354;PMS7003;66422;51.202;19.936;2023-08-31T13:00:57;6.00;6.00;5.50
77354;PMS7003;66422;51.202;19.936;2023-08-31T13:16:19;8.00;8.00;6.33
77354;PMS7003;66422;51.202;19.936;2023-08-31T13:31:38;9.00;9.00;7.67
77354;PMS7003;66422;51.202;19.936;2023-08-31T13:46:58;12.00;11.00;10.00
77354;PMS7003;66422;51.202;19.936;2023-08-31T14:02:18;14.33;12.00;10.00
77354;PMS7003;66422;51.202;19.936;2023-08-31T14:17:38;13.00;11.67;9.67
77354;PMS7003;66422;51.202;19.936;2023-08-31T14:32:57;11.00;9.00;8.00
77354;PMS7003;66422;51.202;19.936;2023-08-31T14:48:17;17.00;15.67;12.00
77354;PMS7003;66422;51.202;19.936;2023-08-31T15:03:37;13.50;13.00;11.00
77354;PMS7003;66422;51.202;19.936;2023-08-31T15:18:57;13.00;12.00;10.00
77354;PMS7003;66422;51.202;19.936;2023-08-31T15:34:16;11.00;10.00;8.00
77354;PMS7003;66422;51.202;19.936;2023-08-31T15:49:36;15.00;15.00;13.00
77354;PMS7003;66422;51.202;19.936;2023-08-31T16:04:56;11.00;11.00;9.00
77354;PMS7003;66422;51.202;19.936;2023-08-31T16:20:16;11.00;11.00;9.00
77354;PMS7003;66422;51.202;19.936;2023-08-31T16:35:37;10.00;9.00;8.00
77354;PMS7003;66422;51.202;19.936;2023-08-31T16:50:57;8.67;8.67;7.67
77354;PMS7003;66422;51.202;19.936;2023-08-31T17:06:17;9.25;8.25;7.75
77354;PMS7003;66422;51.202;19.936;2023-08-31T17:21:37;12.00;12.00;9.00
77354;PMS7003;66422;51.202;19.936;2023-08-31T17:36:57;14.00;14.00;11.00
77354;PMS7003;66422;51.202;19.936;2023-08-31T17:52:16;10.00;10.00;8.00
77354;PMS7003;66422;51.202;19.936;2023-08-31T18:07:36;24.00;20.50;15.00
77354;PMS7003;66422;51.202;19.936;2023-08-31T18:22:56;42.00;33.00;20.00
77354;PMS7003;66422;51.202;19.936;2023-08-31T18:38:16;26.00;20.00;15.00
77354;PMS7003;66422;51.202;19.936;2023-08-31T18:53:36;20.00;20.00;15.00
77354;PMS7003;66422;51.202;19.936;2023-08-31T19:08:56;22.00;16.00;12.00
77354;PMS7003;66422;51.202;19.936;2023-08-31T19:24:15;18.00;14.00;11.00
77354;PMS7003;66422;51.202;19.936;2023-08-31T19:39:35;14.00;13.00;9.50
77354;PMS7003;66422;51.202;19.936;2023-08-31T19:54:55;19.50;17.00;12.50
77354;PMS7003;66422;51.202;19.936;2023-08-31T20:10:15;15.50;14.00;10.00
77354;PMS7003;66422;51.202;19.936;2023-08-31T20:25:35;9.50;8.50;7.00
77354;PMS7003;66422;51.202;19.936;2023-08-31T20:40:55;10.00;10.00;9.00
77354;PMS7003;66422;51.202;19.936;2023-08-31T20:56:17;13.67;11.67;8.00
77354;PMS7003;66422;51.202;19.936;2023-08-31T21:11:37;13.00;9.00;7.50
77354;PMS7003;66422;51.202;19.936;2023-08-31T21:26:57;19.50;15.00;10.00
77354;PMS7003;66422;51.202;19.936;2023-08-31T21:42:17;24.00;17.50;12.00
77354;PMS7003;66422;51.202;19.936;2023-08-31T21:57:37;15.00;9.00;7.50
77354;PMS7003;66422;51.202;19.936;2023-08-31T22:12:57;15.50;11.50;8.50
77354;PMS7003;66422;51.202;19.936;2023-08-31T22:28:16;11.50;10.50;8.50
77354;PMS7003;66422;51.202;19.936;2023-08-31T22:43:36;9.50;7.50;6.25
77354;PMS7003;66422;51.202;19.936;2023-08-31T22:58:59;17.00;13.50;9.00
77354;PMS7003;66422;51.202;19.936;2023-08-31T23:14:19;13.00;11.50;8.00
77354;PMS7003;66422;51.202;19.936;2023-08-31T23:29:39;10.00;9.00;7.00
77354;PMS7003;66422;51.202;19.936;2023-08-31T23:44:59;12.00;9.00;7.00
